createdAt,value
2022-09-12T00:01:53.976Z,10.98
2022-09-12T00:06:53.216Z,7.09
2022-09-12T00:11:52.144Z,6.93
2022-09-12T00:16:51.181Z,7.42
2022-09-12T00:21:50.158Z,9.23
2022-09-12T00:26:49.197Z,6.97
2022-09-12T00:31:48.212Z,6.52
2022-09-12T00:36:47.183Z,5.81
2022-09-12T00:41:46.221Z,8.62
2022-09-12T00:46:45.229Z,5.09
2022-09-12T00:51:44.228Z,6.88
2022-09-12T00:56:43.240Z,5.54
2022-09-12T01:01:43.033Z,5.70
2022-09-12T01:06:42.789Z,6.32
2022-09-12T01:11:42.113Z,6.23
2022-09-12T01:16:41.214Z,8.57
2022-09-12T01:21:40.454Z,10.11
2022-09-12T01:26:39.054Z,5.13
2022-09-12T01:31:38.440Z,5.75
2022-09-12T01:36:37.897Z,8.18
2022-09-12T01:41:37.209Z,8.43
2022-09-12T01:46:36.014Z,6.62
2022-09-12T01:51:35.396Z,6.61
2022-09-12T01:56:34.316Z,6.76
2022-09-12T02:01:33.378Z,10.09
2022-09-12T02:06:32.074Z,5.97
2022-09-12T02:11:31.331Z,9.85
2022-09-12T02:16:30.216Z,6.74
2022-09-12T02:21:31.200Z,6.66
2022-09-12T02:26:30.143Z,5.25
2022-09-12T02:31:29.455Z,4.70
2022-09-12T02:36:28.177Z,4.15
2022-09-12T02:41:27.215Z,5.22
2022-09-12T02:46:26.209Z,8.03
2022-09-12T02:51:25.207Z,5.34
2022-09-12T02:56:24.116Z,5.87
2022-09-12T03:01:23.374Z,5.57
2022-09-12T03:06:22.239Z,8.22
2022-09-12T03:11:21.363Z,6.32
2022-09-12T03:16:20.097Z,6.85
2022-09-12T03:21:19.279Z,5.86
2022-09-12T03:26:18.399Z,5.24
2022-09-12T03:31:17.313Z,6.99
2022-09-12T03:36:16.784Z,4.94
2022-09-12T03:41:16.167Z,7.05
2022-09-12T03:46:15.384Z,6.81
2022-09-12T03:51:14.171Z,4.60
2022-09-12T03:56:13.135Z,4.68
2022-09-12T04:01:12.997Z,6.48
2022-09-12T04:06:12.526Z,5.95
2022-09-12T04:11:11.341Z,5.27
2022-09-12T04:16:10.169Z,8.88
2022-09-12T04:21:09.263Z,6.32
2022-09-12T04:26:08.258Z,6.10
2022-09-12T04:31:07.508Z,4.21
2022-09-12T04:36:06.387Z,5.67
2022-09-12T04:41:05.304Z,5.73
2022-09-12T04:46:04.850Z,5.21
2022-09-12T04:51:04.641Z,5.13
2022-09-12T04:56:03.367Z,5.27
2022-09-12T05:01:02.435Z,7.20
2022-09-12T05:06:01.197Z,6.31
2022-09-12T05:11:00.408Z,6.24
2022-09-12T05:15:59.694Z,5.32
2022-09-12T05:20:58.676Z,4.13
2022-09-12T05:25:57.583Z,4.42
2022-09-12T05:30:59.316Z,5.15
2022-09-12T05:35:58.196Z,4.19
2022-09-12T05:40:57.312Z,6.31
2022-09-12T05:45:56.441Z,4.93
2022-09-12T05:50:55.344Z,4.64
2022-09-12T05:55:54.358Z,5.15
2022-09-12T06:00:53.432Z,4.87
2022-09-12T06:05:52.209Z,3.32
2022-09-12T06:10:51.459Z,4.87
2022-09-12T06:15:50.415Z,5.62
2022-09-12T06:20:49.228Z,4.66
2022-09-12T06:25:48.334Z,5.85
2022-09-12T06:30:48.478Z,6.67
2022-09-12T06:35:47.324Z,5.65
2022-09-12T06:40:46.799Z,6.72
2022-09-12T06:45:45.305Z,6.27
2022-09-12T06:50:44.308Z,8.53
2022-09-12T06:55:43.151Z,11.44
2022-09-12T07:00:42.216Z,12.17
2022-09-12T07:05:41.152Z,12.12
2022-09-12T07:10:40.246Z,12.20
2022-09-12T07:15:39.660Z,12.26
2022-09-12T07:20:38.877Z,9.06
2022-09-12T07:25:37.492Z,6.46
2022-09-12T07:30:36.431Z,6.57
2022-09-12T07:35:35.396Z,5.49
2022-09-12T07:40:34.414Z,6.01
2022-09-12T07:45:33.321Z,5.64
2022-09-12T07:50:33.140Z,6.80
2022-09-12T07:55:32.464Z,4.56
2022-09-12T08:00:34.162Z,7.54
2022-09-12T08:05:33.541Z,5.67
2022-09-12T08:10:32.389Z,6.91
2022-09-12T08:15:31.877Z,6.82
2022-09-12T08:20:31.433Z,5.53
2022-09-12T08:25:30.657Z,3.28
2022-09-12T08:30:29.637Z,4.71
2022-09-12T08:35:28.301Z,4.95
2022-09-12T08:40:27.490Z,4.32
2022-09-12T08:45:26.332Z,4.07
2022-09-12T08:50:25.789Z,8.40
2022-09-12T08:55:24.613Z,5.10
2022-09-12T09:00:23.538Z,6.13
2022-09-12T09:05:22.834Z,11.92
2022-09-12T09:10:22.267Z,12.82
2022-09-12T09:15:23.307Z,15.97
2022-09-12T09:20:22.973Z,7.32
2022-09-12T09:25:23.155Z,6.04
2022-09-12T09:30:22.307Z,16.20
2022-09-12T09:35:21.318Z,10.12
2022-09-12T09:40:20.383Z,10.11
2022-09-12T09:45:19.342Z,15.00
2022-09-12T09:50:19.241Z,9.28
2022-09-12T09:55:18.593Z,8.05
2022-09-12T10:00:17.365Z,8.91
2022-09-12T10:05:16.370Z,7.38
2022-09-12T10:10:15.720Z,9.90
2022-09-12T10:15:14.426Z,8.28
2022-09-12T10:20:21.993Z,5.91
2022-09-12T10:25:14.681Z,6.74
2022-09-12T10:30:13.406Z,7.24
2022-09-12T10:35:12.506Z,6.92
2022-09-12T10:40:11.329Z,10.14
2022-09-12T10:45:10.520Z,8.36
2022-09-12T10:50:12.590Z,7.66
2022-09-12T10:55:10.597Z,7.99
2022-09-12T11:00:12.445Z,8.26
2022-09-12T11:05:11.381Z,10.14
2022-09-12T11:10:10.517Z,8.12
2022-09-12T11:15:09.515Z,8.59
2022-09-12T11:20:08.625Z,6.94
2022-09-12T11:25:07.524Z,8.06
2022-09-12T11:30:07.115Z,6.40
2022-09-12T11:35:06.677Z,7.31
2022-09-12T11:40:05.926Z,7.42
2022-09-12T11:45:05.759Z,9.70
2022-09-12T11:50:04.477Z,10.91
2022-09-12T11:55:03.751Z,6.55
2022-09-12T12:00:02.461Z,22.48
2022-09-12T12:05:01.485Z,7.64
2022-09-12T12:10:00.392Z,10.13
2022-09-12T12:14:59.402Z,9.93
2022-09-12T12:20:02.164Z,13.63
2022-09-12T12:25:02.425Z,21.58
2022-09-12T12:30:01.462Z,17.12
2022-09-12T12:35:00.502Z,16.12
2022-09-12T12:40:04.275Z,20.81
2022-09-12T12:45:03.832Z,17.71
2022-09-12T12:50:02.409Z,15.54
2022-09-12T12:55:01.391Z,16.64
2022-09-12T13:00:00.457Z,13.06
2022-09-12T13:04:59.430Z,17.15
2022-09-12T13:09:58.444Z,23.62
2022-09-12T13:14:57.967Z,30.71
2022-09-12T13:20:16.910Z,18.45
2022-09-12T13:24:57.415Z,11.87
2022-09-12T13:29:56.421Z,10.57
2022-09-12T13:34:55.547Z,7.48
2022-09-12T13:39:55.108Z,8.78
2022-09-12T13:44:54.611Z,9.68
2022-09-12T13:49:53.497Z,13.08
2022-09-12T13:54:52.699Z,9.48
2022-09-12T13:59:52.039Z,10.88
2022-09-12T14:05:09.935Z,7.88
2022-09-12T14:10:11.557Z,6.39
2022-09-12T14:15:11.635Z,11.98
2022-09-12T14:20:10.811Z,6.69
2022-09-12T14:25:10.527Z,9.59
2022-09-12T14:30:09.647Z,9.19
2022-09-12T14:35:08.652Z,6.59
2022-09-12T14:40:07.720Z,7.29
2022-09-12T14:45:06.784Z,8.59
2022-09-12T14:50:11.131Z,8.69
2022-09-12T14:55:08.988Z,5.89
2022-09-12T15:00:07.716Z,5.99
2022-09-12T15:05:06.621Z,7.69
2022-09-12T15:10:05.620Z,7.59
2022-09-12T15:15:04.652Z,9.49
2022-09-12T15:20:03.742Z,5.89
2022-09-12T15:25:02.595Z,6.69
2022-09-12T15:30:01.969Z,11.28
2022-09-12T15:35:00.588Z,8.59
2022-09-12T15:39:59.831Z,8.58
2022-09-12T15:45:02.547Z,15.57
2022-09-12T15:50:00.590Z,17.67
2022-09-12T15:54:59.554Z,12.08
2022-09-12T15:59:58.641Z,15.57
2022-09-12T16:04:57.633Z,16.77
2022-09-12T16:09:56.641Z,15.87
2022-09-12T16:14:55.619Z,19.86
2022-09-12T16:19:55.500Z,17.96
2022-09-12T16:24:54.553Z,16.36
2022-09-12T16:29:53.710Z,11.17
2022-09-12T16:34:52.613Z,12.97
2022-09-12T16:39:52.033Z,9.78
2022-09-12T16:44:50.645Z,8.08
2022-09-12T16:49:50.801Z,10.17
2022-09-12T16:54:49.686Z,9.18
2022-09-12T16:59:48.702Z,9.87
2022-09-12T17:04:47.600Z,10.27
2022-09-12T17:09:48.301Z,12.16
2022-09-12T17:14:46.573Z,15.05
2022-09-12T17:19:45.659Z,11.56
2022-09-12T17:24:44.675Z,8.27
2022-09-12T17:29:43.812Z,8.47
2022-09-12T17:34:42.896Z,7.77
2022-09-12T17:39:42.225Z,8.17
2022-09-12T17:44:40.723Z,6.28
2022-09-12T17:49:40.096Z,10.26
2022-09-12T17:54:39.432Z,7.57
2022-09-12T17:59:38.884Z,6.97
2022-09-12T18:04:38.438Z,6.97
2022-09-12T18:09:37.825Z,4.88
2022-09-12T18:14:37.238Z,6.47
2022-09-12T18:19:35.849Z,6.96
2022-09-12T18:24:34.852Z,8.35
2022-09-12T18:29:33.880Z,6.96
2022-09-12T18:34:32.702Z,7.45
2022-09-12T18:39:31.868Z,5.36
2022-09-12T18:44:30.993Z,5.76
2022-09-12T18:49:29.943Z,8.04
2022-09-12T18:54:28.957Z,7.74
2022-09-12T18:59:27.780Z,9.82
2022-09-12T19:04:26.958Z,6.35
2022-09-12T19:09:25.931Z,8.83
2022-09-12T19:14:25.767Z,8.73
2022-09-12T19:19:24.834Z,4.07
2022-09-12T19:24:23.809Z,7.44
2022-09-12T19:29:22.821Z,5.25
2022-09-12T19:34:21.918Z,6.94
2022-09-12T19:39:20.883Z,5.35
2022-09-12T19:44:20.154Z,5.25
2022-09-12T19:49:18.786Z,6.94
2022-09-12T19:54:17.904Z,4.26
2022-09-12T19:59:16.905Z,6.83
2022-09-12T20:04:15.896Z,6.73
2022-09-12T20:09:14.923Z,8.91
2022-09-12T20:14:14.185Z,6.83
2022-09-12T20:19:12.925Z,6.34
2022-09-12T20:24:11.953Z,5.05
2022-09-12T20:29:10.954Z,6.04
2022-09-12T20:34:13.035Z,7.13
2022-09-12T20:39:11.858Z,5.74
2022-09-12T20:44:10.862Z,6.53
2022-09-12T20:49:09.857Z,8.01
2022-09-12T20:54:08.872Z,7.42
2022-09-12T20:59:07.884Z,7.71
2022-09-12T21:04:07.081Z,7.12
2022-09-12T21:09:07.197Z,6.03
2022-09-12T21:14:05.934Z,6.23
2022-09-12T21:19:04.836Z,5.24
2022-09-12T21:24:03.964Z,7.61
2022-09-12T21:29:03.072Z,5.24
2022-09-12T21:34:02.009Z,8.50
2022-09-12T21:39:00.997Z,7.91
2022-09-12T21:44:00.320Z,4.84
2022-09-12T21:48:59.113Z,7.31
2022-09-12T21:53:58.356Z,8.40
2022-09-12T21:58:57.041Z,7.70
2022-09-12T22:03:55.893Z,6.52
2022-09-12T22:08:55.963Z,6.12
2022-09-12T22:13:54.908Z,5.23
2022-09-12T22:18:53.910Z,3.75
2022-09-12T22:24:11.169Z,6.41
2022-09-12T22:29:10.322Z,4.63
2022-09-12T22:34:09.018Z,6.11
2022-09-12T22:39:07.968Z,4.63
2022-09-12T22:44:06.993Z,7.98
2022-09-12T22:49:05.993Z,5.12
2022-09-12T22:54:05.761Z,7.39
2022-09-12T22:59:05.160Z,5.22
2022-09-12T23:04:04.845Z,6.89
2022-09-12T23:09:04.000Z,5.22
2022-09-12T23:14:03.254Z,6.69
2022-09-12T23:19:02.115Z,4.33
2022-09-12T23:24:00.916Z,4.82
2022-09-12T23:28:59.927Z,5.79
2022-09-12T23:33:58.935Z,6.38
2022-09-12T23:38:58.318Z,6.68
2022-09-12T23:43:56.955Z,5.30
2022-09-12T23:48:55.959Z,5.10
2022-09-12T23:53:54.971Z,4.51
2022-09-12T23:58:53.985Z,5.50
